sensor_id;sensor_type;location;lat;lon;timestamp;pressure;altitude;pressure_sealevel;temperature;humidity
61035;BME280;46916;40.564;-7.958;2023-08-12T00:00:15;98001.28;;;24.72;69.81
61035;BME280;46916;40.564;-7.958;2023-08-12T00:02:19;98006.88;;;24.70;70.25
61035;BME280;46916;40.564;-7.958;2023-08-12T00:04:19;98007.69;;;24.71;69.92
61035;BME280;46916;40.564;-7.958;2023-08-12T00:06:20;98011.81;;;24.67;69.87
61035;BME280;46916;40.564;-7.958;2023-08-12T00:08:20;98012.22;;;24.64;70.17
61035;BME280;46916;40.564;-7.958;2023-08-12T00:10:21;98012.44;;;24.62;70.34
61035;BME280;46916;40.564;-7.958;2023-08-12T00:12:21;98009.53;;;24.57;70.76
61035;BME280;46916;40.564;-7.958;2023-08-12T00:14:22;98017.78;;;24.56;70.69
61035;BME280;46916;40.564;-7.958;2023-08-12T00:16:22;98016.94;;;24.55;70.56
61035;BME280;46916;40.564;-7.958;2023-08-12T00:18:23;98018.59;;;24.50;71.18
61035;BME280;46916;40.564;-7.958;2023-08-12T00:20:23;98017.97;;;24.48;70.74
61035;BME280;46916;40.564;-7.958;2023-08-12T00:22:24;98012.41;;;24.42;71.00
61035;BME280;46916;40.564;-7.958;2023-08-12T00:24:25;98003.75;;;24.40;71.16
61035;BME280;46916;40.564;-7.958;2023-08-12T00:26:25;98004.78;;;24.39;71.85
61035;BME280;46916;40.564;-7.958;2023-08-12T00:28:27;98000.06;;;24.41;71.40
61035;BME280;46916;40.564;-7.958;2023-08-12T00:30:27;98000.88;;;24.42;71.12
61035;BME280;46916;40.564;-7.958;2023-08-12T00:32:28;98002.91;;;24.40;71.16
61035;BME280;46916;40.564;-7.958;2023-08-12T00:34:28;98002.91;;;24.40;71.47
61035;BME280;46916;40.564;-7.958;2023-08-12T00:36:29;97995.94;;;24.45;71.17
61035;BME280;46916;40.564;-7.958;2023-08-12T00:38:29;97993.25;;;24.45;71.35
61035;BME280;46916;40.564;-7.958;2023-08-12T00:40:30;97993.88;;;24.48;71.01
61035;BME280;46916;40.564;-7.958;2023-08-12T00:42:30;97990.16;;;24.42;71.14
61035;BME280;46916;40.564;-7.958;2023-08-12T00:44:31;97991.38;;;24.39;71.25
61035;BME280;46916;40.564;-7.958;2023-08-12T00:46:31;97997.13;;;24.36;71.30
61035;BME280;46916;40.564;-7.958;2023-08-12T00:48:32;98000.81;;;24.35;71.94
61035;BME280;46916;40.564;-7.958;2023-08-12T00:50:33;97996.50;;;24.34;71.51
61035;BME280;46916;40.564;-7.958;2023-08-12T00:52:33;97997.94;;;24.30;71.96
61035;BME280;46916;40.564;-7.958;2023-08-12T00:54:34;97988.88;;;24.31;71.63
61035;BME280;46916;40.564;-7.958;2023-08-12T00:56:35;97994.22;;;24.31;71.86
61035;BME280;46916;40.564;-7.958;2023-08-12T00:58:35;97989.69;;;24.32;71.91
61035;BME280;46916;40.564;-7.958;2023-08-12T01:00:36;97986.84;;;24.33;71.75
61035;BME280;46916;40.564;-7.958;2023-08-12T01:02:37;97988.47;;;24.34;71.43
61035;BME280;46916;40.564;-7.958;2023-08-12T01:04:38;97988.88;;;24.31;71.62
61035;BME280;46916;40.564;-7.958;2023-08-12T01:06:39;97992.59;;;24.30;71.64
61035;BME280;46916;40.564;-7.958;2023-08-12T01:08:39;97989.72;;;24.25;71.93
61035;BME280;46916;40.564;-7.958;2023-08-12T01:10:42;97985.78;;;24.21;71.87
61035;BME280;46916;40.564;-7.958;2023-08-12T01:12:49;97984.94;;;24.20;72.18
61035;BME280;46916;40.564;-7.958;2023-08-12T01:14:59;97981.44;;;24.20;71.54
61035;BME280;46916;40.564;-7.958;2023-08-12T01:17:02;97990.72;;;24.17;71.78
61035;BME280;46916;40.564;-7.958;2023-08-12T01:19:05;97983.50;;;24.18;72.00
61035;BME280;46916;40.564;-7.958;2023-08-12T01:21:07;97985.13;;;24.12;71.91
61035;BME280;46916;40.564;-7.958;2023-08-12T01:25:10;97970.28;;;24.03;72.34
61035;BME280;46916;40.564;-7.958;2023-08-12T01:27:12;97969.47;;;24.03;72.49
61035;BME280;46916;40.564;-7.958;2023-08-12T01:29:12;97973.78;;;24.04;72.52
61035;BME280;46916;40.564;-7.958;2023-08-12T01:31:25;97971.53;;;24.01;72.47
61035;BME280;46916;40.564;-7.958;2023-08-12T01:37:30;97963.69;;;23.99;72.79
61035;BME280;46916;40.564;-7.958;2023-08-12T01:39:31;97962.47;;;24.02;73.10
61035;BME280;46916;40.564;-7.958;2023-08-12T01:41:34;97956.31;;;24.01;72.41
61035;BME280;46916;40.564;-7.958;2023-08-12T01:43:35;97962.88;;;23.98;72.67
61035;BME280;46916;40.564;-7.958;2023-08-12T01:45:35;97965.75;;;23.97;72.96
61035;BME280;46916;40.564;-7.958;2023-08-12T01:47:36;97959.59;;;23.96;72.83
61035;BME280;46916;40.564;-7.958;2023-08-12T01:49:37;97963.09;;;23.97;73.22
61035;BME280;46916;40.564;-7.958;2023-08-12T01:51:37;97958.56;;;23.97;73.27
61035;BME280;46916;40.564;-7.958;2023-08-12T01:53:38;97956.72;;;23.98;73.46
61035;BME280;46916;40.564;-7.958;2023-08-12T01:55:39;97946.81;;;23.98;72.89
61035;BME280;46916;40.564;-7.958;2023-08-12T01:57:39;97953.59;;;23.94;72.92
61035;BME280;46916;40.564;-7.958;2023-08-12T01:59:40;97953.19;;;23.91;73.36
61035;BME280;46916;40.564;-7.958;2023-08-12T02:01:41;97942.69;;;23.89;73.03
61035;BME280;46916;40.564;-7.958;2023-08-12T02:03:41;97942.06;;;23.87;73.01
61035;BME280;46916;40.564;-7.958;2023-08-12T02:05:42;97936.94;;;23.86;73.43
61035;BME280;46916;40.564;-7.958;2023-08-12T02:07:43;97933.22;;;23.87;73.13
61035;BME280;46916;40.564;-7.958;2023-08-12T02:09:45;97933.00;;;23.82;73.32
61035;BME280;46916;40.564;-7.958;2023-08-12T02:11:46;97931.16;;;23.82;73.56
61035;BME280;46916;40.564;-7.958;2023-08-12T02:13:46;97931.97;;;23.83;73.08
61035;BME280;46916;40.564;-7.958;2023-08-12T02:15:47;97924.16;;;23.81;73.15
61035;BME280;46916;40.564;-7.958;2023-08-12T02:17:47;97923.53;;;23.79;73.14
61035;BME280;46916;40.564;-7.958;2023-08-12T02:19:48;97921.28;;;23.76;73.40
61035;BME280;46916;40.564;-7.958;2023-08-12T02:21:48;97907.91;;;23.76;73.39
61035;BME280;46916;40.564;-7.958;2023-08-12T02:25:49;97906.22;;;23.75;73.63
61035;BME280;46916;40.564;-7.958;2023-08-12T02:27:52;97909.53;;;23.77;73.32
61035;BME280;46916;40.564;-7.958;2023-08-12T02:29:53;97902.13;;;23.72;73.45
61035;BME280;46916;40.564;-7.958;2023-08-12T02:31:54;97902.31;;;23.71;73.64
61035;BME280;46916;40.564;-7.958;2023-08-12T02:33:54;97897.19;;;23.69;73.54
61035;BME280;46916;40.564;-7.958;2023-08-12T02:35:55;97896.53;;;23.67;73.60
61035;BME280;46916;40.564;-7.958;2023-08-12T02:37:55;97899.84;;;23.69;73.84
61035;BME280;46916;40.564;-7.958;2023-08-12T02:39:56;97900.06;;;23.68;73.63
61035;BME280;46916;40.564;-7.958;2023-08-12T02:41:56;97897.41;;;23.68;73.97
61035;BME280;46916;40.564;-7.958;2023-08-12T02:43:57;97898.22;;;23.68;73.96
61035;BME280;46916;40.564;-7.958;2023-08-12T02:45:57;97896.34;;;23.69;73.95
61035;BME280;46916;40.564;-7.958;2023-08-12T02:47:58;97895.53;;;23.68;73.86
61035;BME280;46916;40.564;-7.958;2023-08-12T02:49:58;97900.06;;;23.68;74.00
61035;BME280;46916;40.564;-7.958;2023-08-12T02:51:59;97895.94;;;23.65;73.79
61035;BME280;46916;40.564;-7.958;2023-08-12T02:53:59;97894.44;;;23.63;74.17
61035;BME280;46916;40.564;-7.958;2023-08-12T02:56:00;97893.44;;;23.64;73.88
61035;BME280;46916;40.564;-7.958;2023-08-12T02:58:01;97895.47;;;23.62;73.79
61035;BME280;46916;40.564;-7.958;2023-08-12T03:00:01;97892.81;;;23.62;74.19
61035;BME280;46916;40.564;-7.958;2023-08-12T03:02:04;97887.47;;;23.62;74.32
61035;BME280;46916;40.564;-7.958;2023-08-12T03:04:04;97889.09;;;23.63;74.37
61035;BME280;46916;40.564;-7.958;2023-08-12T03:06:05;97889.09;;;23.63;73.91
61035;BME280;46916;40.564;-7.958;2023-08-12T03:08:06;97892.41;;;23.65;73.93
61035;BME280;46916;40.564;-7.958;2023-08-12T03:10:07;97895.72;;;23.67;73.84
61035;BME280;46916;40.564;-7.958;2023-08-12T03:12:07;97892.41;;;23.65;73.95
61035;BME280;46916;40.564;-7.958;2023-08-12T03:14:08;97896.13;;;23.64;73.74
61035;BME280;46916;40.564;-7.958;2023-08-12T03:16:13;97892.59;;;23.63;73.64
61035;BME280;46916;40.564;-7.958;2023-08-12T03:18:19;97892.81;;;23.62;73.86
61035;BME280;46916;40.564;-7.958;2023-08-12T03:20:20;97892.59;;;23.63;73.80
61035;BME280;46916;40.564;-7.958;2023-08-12T03:22:21;97883.75;;;23.63;74.21
61035;BME280;46916;40.564;-7.958;2023-08-12T03:24:21;97882.09;;;23.62;73.75
61035;BME280;46916;40.564;-7.958;2023-08-12T03:26:22;97877.16;;;23.59;74.24
61035;BME280;46916;40.564;-7.958;2023-08-12T03:28:23;97873.06;;;23.56;74.18
61035;BME280;46916;40.564;-7.958;2023-08-12T03:30:24;97870.56;;;23.55;74.14
61035;BME280;46916;40.564;-7.958;2023-08-12T03:32:25;97867.28;;;23.53;74.17
61035;BME280;46916;40.564;-7.958;2023-08-12T03:34:28;97860.69;;;23.48;74.20
61035;BME280;46916;40.564;-7.958;2023-08-12T03:36:29;97869.75;;;23.47;74.31
61035;BME280;46916;40.564;-7.958;2023-08-12T03:38:29;97856.78;;;23.44;74.35
61035;BME280;46916;40.564;-7.958;2023-08-12T03:40:30;97860.47;;;23.43;74.49
61035;BME280;46916;40.564;-7.958;2023-08-12T03:42:31;97853.06;;;23.45;74.27
61035;BME280;46916;40.564;-7.958;2023-08-12T03:44:35;97863.75;;;23.45;74.16
61035;BME280;46916;40.564;-7.958;2023-08-12T03:46:36;97858.00;;;23.42;74.08
61035;BME280;46916;40.564;-7.958;2023-08-12T03:48:37;97854.06;;;23.38;74.05
61035;BME280;46916;40.564;-7.958;2023-08-12T03:50:37;97859.41;;;23.38;73.98
61035;BME280;46916;40.564;-7.958;2023-08-12T03:52:38;97855.72;;;23.39;73.84
61035;BME280;46916;40.564;-7.958;2023-08-12T03:54:39;97849.13;;;23.35;74.33
61035;BME280;46916;40.564;-7.958;2023-08-12T03:56:39;97851.78;;;23.35;74.16
61035;BME280;46916;40.564;-7.958;2023-08-12T03:58:40;97859.00;;;23.34;74.12
61035;BME280;46916;40.564;-7.958;2023-08-12T04:00:41;97852.00;;;23.33;74.12
61035;BME280;46916;40.564;-7.958;2023-08-12T04:02:43;97845.84;;;23.33;74.54
61035;BME280;46916;40.564;-7.958;2023-08-12T04:04:44;97846.66;;;23.33;74.16
61035;BME280;46916;40.564;-7.958;2023-08-12T04:06:45;97849.13;;;23.35;74.27
61035;BME280;46916;40.564;-7.958;2023-08-12T04:08:50;97856.13;;;23.36;74.53
61035;BME280;46916;40.564;-7.958;2023-08-12T04:10:53;97856.31;;;23.34;74.04
61035;BME280;46916;40.564;-7.958;2023-08-12T04:12:54;97858.38;;;23.32;74.34
61035;BME280;46916;40.564;-7.958;2023-08-12T04:14:54;97844.38;;;23.30;74.35
61035;BME280;46916;40.564;-7.958;2023-08-12T04:16:55;97841.72;;;23.23;74.96
61035;BME280;46916;40.564;-7.958;2023-08-12T04:18:55;97842.91;;;23.21;74.90
61035;BME280;46916;40.564;-7.958;2023-08-12T04:20:57;97843.94;;;23.20;75.46
61035;BME280;46916;40.564;-7.958;2023-08-12T04:22:57;97847.44;;;23.20;75.52
61035;BME280;46916;40.564;-7.958;2023-08-12T04:24:58;97850.72;;;23.22;75.36
61035;BME280;46916;40.564;-7.958;2023-08-12T04:26:58;97853.22;;;23.24;75.35
61035;BME280;46916;40.564;-7.958;2023-08-12T04:29:02;97844.38;;;23.23;75.05
61035;BME280;46916;40.564;-7.958;2023-08-12T04:31:05;97839.63;;;23.26;75.05
61035;BME280;46916;40.564;-7.958;2023-08-12T04:33:06;97852.41;;;23.23;75.33
61035;BME280;46916;40.564;-7.958;2023-08-12T04:35:07;97850.31;;;23.26;75.38
61035;BME280;46916;40.564;-7.958;2023-08-12T04:37:07;97848.28;;;23.28;75.06
61035;BME280;46916;40.564;-7.958;2023-08-12T04:39:08;97849.72;;;23.30;75.05
61035;BME280;46916;40.564;-7.958;2023-08-12T04:41:09;97856.75;;;23.31;75.28
61035;BME280;46916;40.564;-7.958;2023-08-12T04:43:10;97852.41;;;23.30;75.47
61035;BME280;46916;40.564;-7.958;2023-08-12T04:45:12;97848.72;;;23.31;75.34
61035;BME280;46916;40.564;-7.958;2023-08-12T04:47:13;97850.38;;;23.32;75.08
61035;BME280;46916;40.564;-7.958;2023-08-12T04:49:14;97844.00;;;23.33;74.98
61035;BME280;46916;40.564;-7.958;2023-08-12T04:51:16;97844.19;;;23.32;75.48
61035;BME280;46916;40.564;-7.958;2023-08-12T04:53:17;97844.81;;;23.34;75.24
61035;BME280;46916;40.564;-7.958;2023-08-12T04:55:18;97850.38;;;23.32;75.34
61035;BME280;46916;40.564;-7.958;2023-08-12T04:57:19;97850.75;;;23.29;75.19
61035;BME280;46916;40.564;-7.958;2023-08-12T04:59:19;97852.19;;;23.25;75.83
61035;BME280;46916;40.564;-7.958;2023-08-12T05:01:21;97856.50;;;23.19;75.93
61035;BME280;46916;40.564;-7.958;2023-08-12T05:03:22;97853.00;;;23.19;76.13
61035;BME280;46916;40.564;-7.958;2023-08-12T05:05:25;97863.88;;;23.17;76.52
61035;BME280;46916;40.564;-7.958;2023-08-12T05:07:25;97852.75;;;23.14;76.79
61035;BME280;46916;40.564;-7.958;2023-08-12T05:09:27;97856.44;;;23.13;77.03
61035;BME280;46916;40.564;-7.958;2023-08-12T05:11:28;97848.44;;;23.13;77.07
61035;BME280;46916;40.564;-7.958;2023-08-12T05:13:28;97853.19;;;23.17;77.21
61035;BME280;46916;40.564;-7.958;2023-08-12T05:15:30;97851.97;;;23.20;77.14
61035;BME280;46916;40.564;-7.958;2023-08-12T05:17:30;97858.94;;;23.21;76.65
61035;BME280;46916;40.564;-7.958;2023-08-12T05:19:31;97861.84;;;23.19;76.51
61035;BME280;46916;40.564;-7.958;2023-08-12T05:21:32;97858.53;;;23.17;76.59
61035;BME280;46916;40.564;-7.958;2023-08-12T05:23:32;97859.75;;;23.15;76.37
61035;BME280;46916;40.564;-7.958;2023-08-12T05:25:33;97850.06;;;23.14;76.16
61035;BME280;46916;40.564;-7.958;2023-08-12T05:27:33;97858.31;;;23.12;75.93
61035;BME280;46916;40.564;-7.958;2023-08-12T05:29:34;97851.09;;;23.13;75.73
61035;BME280;46916;40.564;-7.958;2023-08-12T05:31:34;97862.00;;;23.11;75.53
61035;BME280;46916;40.564;-7.958;2023-08-12T05:33:35;97860.94;;;23.06;75.68
61035;BME280;46916;40.564;-7.958;2023-08-12T05:35:35;97853.94;;;23.05;75.46
61035;BME280;46916;40.564;-7.958;2023-08-12T05:37:36;97854.78;;;23.05;75.19
61035;BME280;46916;40.564;-7.958;2023-08-12T05:39:36;97857.66;;;23.04;75.30
61035;BME280;46916;40.564;-7.958;2023-08-12T05:41:37;97861.97;;;23.05;75.41
61035;BME280;46916;40.564;-7.958;2023-08-12T05:43:37;97859.69;;;23.02;75.28
61035;BME280;46916;40.564;-7.958;2023-08-12T05:45:38;97867.09;;;22.99;75.40
61035;BME280;46916;40.564;-7.958;2023-08-12T05:47:38;97863.59;;;22.99;75.66
61035;BME280;46916;40.564;-7.958;2023-08-12T05:49:39;97864.41;;;22.99;75.53
61035;BME280;46916;40.564;-7.958;2023-08-12T05:51:39;97875.72;;;23.02;75.71
61035;BME280;46916;40.564;-7.958;2023-08-12T05:53:40;97867.50;;;23.03;75.70
61035;BME280;46916;40.564;-7.958;2023-08-12T05:55:40;97867.91;;;23.00;75.53
61035;BME280;46916;40.564;-7.958;2023-08-12T05:57:40;97865.22;;;23.00;75.45
61035;BME280;46916;40.564;-7.958;2023-08-12T05:59:41;97867.09;;;22.99;75.44
61035;BME280;46916;40.564;-7.958;2023-08-12T06:01:41;97866.44;;;22.97;75.62
61035;BME280;46916;40.564;-7.958;2023-08-12T06:03:42;97870.53;;;22.93;75.90
61035;BME280;46916;40.564;-7.958;2023-08-12T06:05:44;97876.09;;;22.92;75.73
61035;BME280;46916;40.564;-7.958;2023-08-12T06:07:44;97876.09;;;22.92;75.93
61035;BME280;46916;40.564;-7.958;2023-08-12T06:09:45;97870.75;;;22.92;76.14
61035;BME280;46916;40.564;-7.958;2023-08-12T06:11:45;97868.06;;;22.92;76.39
61035;BME280;46916;40.564;-7.958;2023-08-12T06:13:46;97872.38;;;22.93;76.64
61035;BME280;46916;40.564;-7.958;2023-08-12T06:15:46;97873.19;;;22.93;76.29
61035;BME280;46916;40.564;-7.958;2023-08-12T06:17:47;97877.72;;;22.93;76.32
61035;BME280;46916;40.564;-7.958;2023-08-12T06:19:47;97875.25;;;22.91;76.26
61035;BME280;46916;40.564;-7.958;2023-08-12T06:21:48;97882.44;;;22.91;76.49
61035;BME280;46916;40.564;-7.958;2023-08-12T06:23:48;97875.41;;;22.90;76.43
61035;BME280;46916;40.564;-7.958;2023-08-12T06:25:49;97883.63;;;22.88;76.09
61035;BME280;46916;40.564;-7.958;2023-08-12T06:27:49;97881.34;;;22.85;76.13
61035;BME280;46916;40.564;-7.958;2023-08-12T06:29:50;97882.38;;;22.84;76.34
61035;BME280;46916;40.564;-7.958;2023-08-12T06:31:51;97880.53;;;22.85;76.52
61035;BME280;46916;40.564;-7.958;2023-08-12T06:33:52;97886.88;;;22.84;76.73
61035;BME280;46916;40.564;-7.958;2023-08-12T06:35:52;97882.75;;;22.81;76.45
61035;BME280;46916;40.564;-7.958;2023-08-12T06:37:53;97886.66;;;22.79;76.84
61035;BME280;46916;40.564;-7.958;2023-08-12T06:39:53;97886.47;;;22.80;76.53
61035;BME280;46916;40.564;-7.958;2023-08-12T06:41:54;97892.44;;;22.82;76.62
61035;BME280;46916;40.564;-7.958;2023-08-12T06:43:56;97887.09;;;22.82;76.59
61035;BME280;46916;40.564;-7.958;2023-08-12T06:45:56;97883.56;;;22.75;76.85
61035;BME280;46916;40.564;-7.958;2023-08-12T06:47:57;97892.19;;;22.77;76.82
61035;BME280;46916;40.564;-7.958;2023-08-12T06:49:57;97887.66;;;22.78;76.66
61035;BME280;46916;40.564;-7.958;2023-08-12T06:51:58;97894.09;;;22.83;76.62
61035;BME280;46916;40.564;-7.958;2023-08-12T06:53:58;97897.38;;;22.85;76.25
61035;BME280;46916;40.564;-7.958;2023-08-12T06:55:59;97892.03;;;22.85;76.19
61035;BME280;46916;40.564;-7.958;2023-08-12T06:57:59;97900.69;;;22.87;76.15
61035;BME280;46916;40.564;-7.958;2023-08-12T07:00:00;97900.31;;;22.90;75.89
61035;BME280;46916;40.564;-7.958;2023-08-12T07:02:00;97907.31;;;22.91;75.93
61035;BME280;46916;40.564;-7.958;2023-08-12T07:04:01;97896.63;;;22.91;75.45
61035;BME280;46916;40.564;-7.958;2023-08-12T07:06:01;97900.31;;;22.90;75.68
61035;BME280;46916;40.564;-7.958;2023-08-12T07:08:02;97901.97;;;22.91;75.67
61035;BME280;46916;40.564;-7.958;2023-08-12T07:10:02;97900.72;;;22.94;75.29
61035;BME280;46916;40.564;-7.958;2023-08-12T07:12:04;97901.38;;;22.96;75.36
61035;BME280;46916;40.564;-7.958;2023-08-12T07:14:05;97904.88;;;22.96;75.24
61035;BME280;46916;40.564;-7.958;2023-08-12T07:16:05;97903.22;;;22.95;75.23
61035;BME280;46916;40.564;-7.958;2023-08-12T07:18:06;97906.50;;;22.97;75.44
61035;BME280;46916;40.564;-7.958;2023-08-12T07:20:07;97910.63;;;23.00;75.67
61035;BME280;46916;40.564;-7.958;2023-08-12T07:22:07;97910.00;;;22.98;75.53
61035;BME280;46916;40.564;-7.958;2023-08-12T07:24:08;97909.38;;;22.96;75.76
61035;BME280;46916;40.564;-7.958;2023-08-12T07:26:08;97915.16;;;22.99;75.70
61035;BME280;46916;40.564;-7.958;2023-08-12T07:28:09;97911.91;;;23.04;75.51
61035;BME280;46916;40.564;-7.958;2023-08-12T07:30:09;97911.50;;;23.07;75.20
61035;BME280;46916;40.564;-7.958;2023-08-12T07:32:10;97914.78;;;23.09;74.68
61035;BME280;46916;40.564;-7.958;2023-08-12T07:34:11;97917.06;;;23.12;74.27
61035;BME280;46916;40.564;-7.958;2023-08-12T07:36:13;97921.78;;;23.10;74.54
61035;BME280;46916;40.564;-7.958;2023-08-12T07:38:13;97918.94;;;23.12;74.45
61035;BME280;46916;40.564;-7.958;2023-08-12T07:40:14;97918.53;;;23.15;74.41
61035;BME280;46916;40.564;-7.958;2023-08-12T07:42:14;97926.13;;;23.18;74.03
61035;BME280;46916;40.564;-7.958;2023-08-12T07:44:15;97928.81;;;23.18;74.27
61035;BME280;46916;40.564;-7.958;2023-08-12T07:46:15;97927.81;;;23.19;73.79
61035;BME280;46916;40.564;-7.958;2023-08-12T07:48:16;97930.47;;;23.19;73.96
61035;BME280;46916;40.564;-7.958;2023-08-12T07:50:16;97928.41;;;23.21;73.66
61035;BME280;46916;40.564;-7.958;2023-08-12T07:52:17;97932.56;;;23.23;73.72
61035;BME280;46916;40.564;-7.958;2023-08-12T07:54:17;97933.00;;;23.27;73.33
61035;BME280;46916;40.564;-7.958;2023-08-12T07:56:18;97929.91;;;23.30;73.43
61035;BME280;46916;40.564;-7.958;2023-08-12T07:58:18;97926.63;;;23.35;73.42
61035;BME280;46916;40.564;-7.958;2023-08-12T08:00:19;97924.38;;;23.38;73.44
61035;BME280;46916;40.564;-7.958;2023-08-12T08:02:19;97924.63;;;23.43;73.01
61035;BME280;46916;40.564;-7.958;2023-08-12T08:04:20;97925.66;;;23.49;72.83
61035;BME280;46916;40.564;-7.958;2023-08-12T08:06:21;97924.03;;;23.55;72.73
61035;BME280;46916;40.564;-7.958;2023-08-12T08:08:22;97918.94;;;23.60;72.69
61035;BME280;46916;40.564;-7.958;2023-08-12T08:10:22;97918.78;;;23.68;72.35
61035;BME280;46916;40.564;-7.958;2023-08-12T08:12:23;97919.59;;;23.75;72.38
61035;BME280;46916;40.564;-7.958;2023-08-12T08:14:24;97920.66;;;23.87;72.22
61035;BME280;46916;40.564;-7.958;2023-08-12T08:16:24;97924.38;;;24.00;71.53
61035;BME280;46916;40.564;-7.958;2023-08-12T08:18:25;97921.31;;;24.03;71.38
61035;BME280;46916;40.564;-7.958;2023-08-12T08:20:25;97923.19;;;24.09;71.15
61035;BME280;46916;40.564;-7.958;2023-08-12T08:22:26;97924.22;;;24.14;70.69
61035;BME280;46916;40.564;-7.958;2023-08-12T08:24:26;97926.28;;;24.19;70.61
61035;BME280;46916;40.564;-7.958;2023-08-12T08:26:27;97921.56;;;24.21;70.22
61035;BME280;46916;40.564;-7.958;2023-08-12T08:28:28;97916.81;;;24.23;69.93
61035;BME280;46916;40.564;-7.958;2023-08-12T08:30:28;97925.69;;;24.30;69.87
61035;BME280;46916;40.564;-7.958;2023-08-12T08:32:29;97926.50;;;24.37;69.55
61035;BME280;46916;40.564;-7.958;2023-08-12T08:34:29;97921.56;;;24.41;69.07
61035;BME280;46916;40.564;-7.958;2023-08-12T08:36:30;97922.81;;;24.45;69.00
61035;BME280;46916;40.564;-7.958;2023-08-12T08:38:30;97920.75;;;24.40;68.58
61035;BME280;46916;40.564;-7.958;2023-08-12T08:40:31;97923.03;;;24.43;68.39
61035;BME280;46916;40.564;-7.958;2023-08-12T08:42:31;97919.31;;;24.44;67.99
61035;BME280;46916;40.564;-7.958;2023-08-12T08:44:32;97924.69;;;24.51;67.78
61035;BME280;46916;40.564;-7.958;2023-08-12T08:46:33;97927.78;;;24.55;67.63
61035;BME280;46916;40.564;-7.958;2023-08-12T08:48:34;97927.75;;;24.61;67.33
61035;BME280;46916;40.564;-7.958;2023-08-12T08:50:35;97921.16;;;24.64;66.11
61035;BME280;46916;40.564;-7.958;2023-08-12T08:52:37;97923.66;;;24.59;66.05
61035;BME280;46916;40.564;-7.958;2023-08-12T08:54:38;97932.09;;;24.62;65.71
61035;BME280;46916;40.564;-7.958;2023-08-12T08:56:39;97922.63;;;24.66;65.55
61035;BME280;46916;40.564;-7.958;2023-08-12T08:58:40;97929.38;;;24.69;65.21
61035;BME280;46916;40.564;-7.958;2023-08-12T09:00:40;97928.97;;;24.72;64.17
61035;BME280;46916;40.564;-7.958;2023-08-12T09:02:41;97935.97;;;24.80;64.11
61035;BME280;46916;40.564;-7.958;2023-08-12T09:04:46;97937.84;;;24.79;63.91
61035;BME280;46916;40.564;-7.958;2023-08-12T09:06:47;97938.44;;;24.81;63.66
61035;BME280;46916;40.564;-7.958;2023-08-12T09:08:48;97933.50;;;24.85;63.28
61035;BME280;46916;40.564;-7.958;2023-08-12T09:10:48;97936.38;;;24.90;63.08
61035;BME280;46916;40.564;-7.958;2023-08-12T09:12:49;97939.66;;;24.92;63.03
61035;BME280;46916;40.564;-7.958;2023-08-12T09:14:52;97933.09;;;24.94;63.69
61035;BME280;46916;40.564;-7.958;2023-08-12T09:16:54;97935.53;;;24.89;64.02
61035;BME280;46916;40.564;-7.958;2023-08-12T09:18:55;97932.88;;;24.89;64.41
61035;BME280;46916;40.564;-7.958;2023-08-12T09:20:56;97928.72;;;24.93;64.50
61035;BME280;46916;40.564;-7.958;2023-08-12T09:22:59;97938.63;;;25.00;64.28
61035;BME280;46916;40.564;-7.958;2023-08-12T09:25:00;97928.31;;;25.03;64.13
61035;BME280;46916;40.564;-7.958;2023-08-12T09:27:01;97936.56;;;25.02;63.54
61035;BME280;46916;40.564;-7.958;2023-08-12T09:29:02;97941.31;;;25.00;63.55
61035;BME280;46916;40.564;-7.958;2023-08-12T09:31:02;97933.06;;;25.01;63.17
61035;BME280;46916;40.564;-7.958;2023-08-12T09:33:04;97935.91;;;25.06;62.90
61035;BME280;46916;40.564;-7.958;2023-08-12T09:35:11;97934.72;;;25.09;62.71
61035;BME280;46916;40.564;-7.958;2023-08-12T09:37:16;97936.56;;;25.15;62.74
61035;BME280;46916;40.564;-7.958;2023-08-12T09:39:17;97939.44;;;25.20;62.74
61035;BME280;46916;40.564;-7.958;2023-08-12T09:41:19;97935.91;;;25.26;62.74
61035;BME280;46916;40.564;-7.958;2023-08-12T09:43:23;97929.31;;;25.29;63.17
61035;BME280;46916;40.564;-7.958;2023-08-12T09:45:24;97933.22;;;25.26;62.11
61035;BME280;46916;40.564;-7.958;2023-08-12T09:47:25;97931.75;;;25.30;62.01
61035;BME280;46916;40.564;-7.958;2023-08-12T09:49:26;97927.44;;;25.29;61.47
61035;BME280;46916;40.564;-7.958;2023-08-12T09:51:26;97922.31;;;25.28;60.76
61035;BME280;46916;40.564;-7.958;2023-08-12T09:53:27;97926.63;;;25.29;60.89
61035;BME280;46916;40.564;-7.958;2023-08-12T09:55:28;97926.41;;;25.30;60.93
61035;BME280;46916;40.564;-7.958;2023-08-12T09:57:29;97919.81;;;25.33;61.17
61035;BME280;46916;40.564;-7.958;2023-08-12T09:59:31;97925.56;;;25.36;61.38
61035;BME280;46916;40.564;-7.958;2023-08-12T10:01:35;97926.56;;;25.42;61.00
61035;BME280;46916;40.564;-7.958;2023-08-12T10:03:37;97918.91;;;25.45;61.11
61035;BME280;46916;40.564;-7.958;2023-08-12T10:05:38;97914.78;;;25.50;60.73
61035;BME280;46916;40.564;-7.958;2023-08-12T10:07:39;97922.00;;;25.56;60.26
61035;BME280;46916;40.564;-7.958;2023-08-12T10:09:40;97918.66;;;25.60;60.00
61035;BME280;46916;40.564;-7.958;2023-08-12T10:11:42;97915.75;;;25.62;59.83
61035;BME280;46916;40.564;-7.958;2023-08-12T10:13:43;97910.78;;;25.65;59.49
61035;BME280;46916;40.564;-7.958;2023-08-12T10:15:44;97913.88;;;25.69;59.50
61035;BME280;46916;40.564;-7.958;2023-08-12T10:17:45;97907.22;;;25.72;58.89
61035;BME280;46916;40.564;-7.958;2023-08-12T10:19:46;97907.03;;;25.73;58.73
61035;BME280;46916;40.564;-7.958;2023-08-12T10:21:47;97909.09;;;25.78;58.64
61035;BME280;46916;40.564;-7.958;2023-08-12T10:23:48;97910.53;;;25.80;58.81
61035;BME280;46916;40.564;-7.958;2023-08-12T10:25:50;97901.25;;;25.76;58.13
61035;BME280;46916;40.564;-7.958;2023-08-12T10:27:53;97909.28;;;25.76;58.41
61035;BME280;46916;40.564;-7.958;2023-08-12T10:29:55;97908.44;;;25.76;57.40
61035;BME280;46916;40.564;-7.958;2023-08-12T10:31:56;97903.94;;;25.76;57.59
61035;BME280;46916;40.564;-7.958;2023-08-12T10:33:57;97905.59;;;25.77;57.78
61035;BME280;46916;40.564;-7.958;2023-08-12T10:35:57;97896.28;;;25.80;57.77
61035;BME280;46916;40.564;-7.958;2023-08-12T10:37:59;97902.03;;;25.83;57.30
61035;BME280;46916;40.564;-7.958;2023-08-12T10:40:03;97902.25;;;25.88;56.79